Time;durP1;ratioP1;P1;durP2;ratioP2;P2;SDS_P1;SDS_P2;PMS_P1;PMS_P2;Temp;Humidity;BMP_temperature;BMP_pressure;BME280_temperature;BME280_humidity;BME280_pressure;Samples;Min_cycle;Max_cycle;Signal;HPM_P1;HPM_P2
2021/06/18 00:02:06;;;;;;;;;9.25;9.25;;;;;24.12;50.42;100701.28;4930589;28;45479;-58
2021/06/18 00:04:31;;;;;;;;;11.50;11.50;;;;;24.14;50.61;100695.81;4940832;28;46162;-58
2021/06/18 00:06:57;;;;;;;;;12.00;10.75;;;;;24.14;50.34;100701.19;4941991;28;45321;-58
2021/06/18 00:09:22;;;;;;;;;11.25;9.50;;;;;24.14;50.84;100679.72;4942258;28;45254;-57
2021/06/18 00:11:47;;;;;;;;;8.00;8.00;;;;;24.13;50.84;100678.84;4942107;28;45340;-58
2021/06/18 00:14:13;;;;;;;;;9.75;8.75;;;;;24.12;50.42;100693.22;4941932;28;46086;-58
2021/06/18 00:16:38;;;;;;;;;9.50;9.00;;;;;24.11;50.77;100690.66;4942126;28;45399;-58
2021/06/18 00:19:04;;;;;;;;;13.00;11.75;;;;;24.11;50.63;100685.28;4942210;28;45252;-58
2021/06/18 00:21:29;;;;;;;;;11.75;10.50;;;;;24.12;50.63;100676.28;4948186;28;45601;-58
2021/06/18 00:23:54;;;;;;;;;11.75;9.00;;;;;24.13;50.38;100686.91;4940406;28;46840;-58
2021/06/18 00:26:20;;;;;;;;;13.00;11.75;;;;;24.12;50.60;100681.66;4937869;28;45329;-58
2021/06/18 00:28:46;;;;;;;;;10.75;9.00;;;;;24.12;50.65;100679.81;4941629;28;45546;-58
2021/06/18 00:31:11;;;;;;;;;9.50;9.50;;;;;24.13;50.62;100692.25;4942065;28;45253;-58
2021/06/18 00:33:36;;;;;;;;;7.50;6.50;;;;;24.13;50.69;100686.91;4941507;28;47010;-58
2021/06/18 00:36:02;;;;;;;;;8.50;8.50;;;;;24.13;50.68;100683.38;4940635;28;45353;-58
2021/06/18 00:38:28;;;;;;;;;10.25;7.00;;;;;24.13;50.72;100678.00;4941665;28;45514;-58
2021/06/18 00:40:53;;;;;;;;;9.00;8.00;;;;;24.13;50.53;100675.31;4941769;28;45401;-58
2021/06/18 00:43:19;;;;;;;;;7.75;7.75;;;;;24.11;50.78;100670.06;4941456;28;45273;-58
2021/06/18 00:45:44;;;;;;;;;6.75;6.25;;;;;24.09;50.85;100660.41;4941933;28;45243;-58
2021/06/18 00:48:12;;;;;;;;;7.00;6.50;;;;;24.13;50.80;100664.56;4941744;28;45955;-58
2021/06/18 00:50:38;;;;;;;;;6.50;5.75;;;;;24.11;50.84;100666.50;4941772;28;45270;-58
2021/06/18 00:53:04;;;;;;;;;6.00;6.00;;;;;24.10;50.46;100688.94;4941333;28;45425;-58
2021/06/18 00:55:31;;;;;;;;;8.00;7.25;;;;;24.09;50.86;100680.03;4941541;28;45361;-58
2021/06/18 00:57:57;;;;;;;;;6.25;5.50;;;;;24.06;51.23;100674.03;4929015;28;45271;-58
2021/06/18 01:00:22;;;;;;;;;6.25;6.25;;;;;24.07;50.92;100667.69;4941484;28;45491;-58
2021/06/18 01:02:48;;;;;;;;;5.50;5.50;;;;;24.06;50.81;100668.66;4926450;28;45370;-58
2021/06/18 01:05:16;;;;;;;;;7.00;6.25;;;;;24.05;51.07;100670.50;4941582;28;45329;-58
2021/06/18 01:08:01;;;;;;;;;7.75;6.25;;;;;24.04;50.86;100670.59;4941235;28;45361;-58
2021/06/18 01:10:29;;;;;;;;;8.25;6.00;;;;;24.05;51.23;100675.00;4941191;28;45464;-58
2021/06/18 01:13:25;;;;;;;;;4.75;4.25;;;;;24.05;50.89;100666.94;4941196;28;45466;-58
2021/06/18 01:16:02;;;;;;;;;5.25;5.00;;;;;24.05;50.93;100675.00;4941156;28;45334;-58
2021/06/18 01:18:33;;;;;;;;;4.25;4.25;;;;;24.05;50.74;100675.88;4945925;28;45322;-58
2021/06/18 01:21:19;;;;;;;;;5.75;5.00;;;;;24.06;50.93;100663.28;4941306;28;45266;-58
2021/06/18 01:24:03;;;;;;;;;7.00;6.00;;;;;24.05;51.12;100664.25;4940861;28;46160;-58
2021/06/18 01:26:43;;;;;;;;;6.00;5.50;;;;;24.04;50.84;100647.31;4940094;28;45342;-58
2021/06/18 01:29:09;;;;;;;;;5.75;4.50;;;;;24.05;50.83;100640.09;4929998;28;45414;-58
2021/06/18 01:31:41;;;;;;;;;5.00;4.50;;;;;24.05;50.95;100626.69;4941021;28;45208;-59
2021/06/18 01:34:15;;;;;;;;;4.00;4.00;;;;;24.06;50.98;100631.09;4941133;28;46197;-58
2021/06/18 01:36:48;;;;;;;;;4.50;3.25;;;;;24.06;51.08;100631.09;4940728;28;45338;-58
2021/06/18 01:39:15;;;;;;;;;4.00;4.00;;;;;24.06;51.07;100631.09;4941285;28;45311;-59
2021/06/18 01:41:43;;;;;;;;;4.25;3.25;;;;;24.00;51.23;100617.16;4940836;28;45408;-58
2021/06/18 01:44:09;;;;;;;;;4.75;3.25;;;;;24.04;50.60;100622.28;4941619;28;46172;-58
2021/06/18 01:46:36;;;;;;;;;3.00;3.00;;;;;24.05;51.18;100610.59;4943043;28;45387;-58
2021/06/18 01:49:09;;;;;;;;;4.00;4.00;;;;;24.05;51.14;100607.91;4944438;28;45341;-58
2021/06/18 01:51:35;;;;;;;;;3.00;3.00;;;;;24.05;50.86;100615.94;4935707;28;45365;-58
2021/06/18 01:54:02;;;;;;;;;3.25;1.50;;;;;24.03;51.21;100608.03;4943957;28;46208;-58
2021/06/18 01:56:29;;;;;;;;;2.00;2.00;;;;;24.02;51.08;100603.63;4944303;28;45374;-58
2021/06/18 01:58:58;;;;;;;;;2.50;2.50;;;;;24.02;51.20;100593.75;4944018;28;45269;-58
2021/06/18 02:01:26;;;;;;;;;2.75;2.75;;;;;24.02;51.06;100599.13;4938183;28;45401;-58
2021/06/18 02:03:52;;;;;;;;;1.50;1.50;;;;;24.02;50.69;100598.25;4937536;28;46479;-58
2021/06/18 02:06:21;;;;;;;;;1.00;1.00;;;;;24.00;51.06;100592.16;4943107;28;45514;-58
2021/06/18 02:08:49;;;;;;;;;2.00;1.25;;;;;24.01;51.06;100588.47;4943694;28;45278;-58
2021/06/18 02:11:14;;;;;;;;;2.00;2.00;;;;;24.01;51.18;100584.00;4944023;28;45246;-58
2021/06/18 02:13:42;;;;;;;;;2.00;2.00;;;;;24.02;51.13;100583.03;4943625;28;46127;-58
2021/06/18 02:16:08;;;;;;;;;1.00;1.00;;;;;24.02;51.01;100580.34;4944130;28;45330;-58
2021/06/18 02:18:36;;;;;;;;;2.50;2.00;;;;;24.02;51.13;100583.03;4943798;28;45274;-58
2021/06/18 02:21:03;;;;;;;;;3.00;2.00;;;;;24.04;51.09;100574.84;4943780;28;45548;-58
2021/06/18 02:23:33;;;;;;;;;3.00;3.00;;;;;24.05;51.16;100567.66;4943390;28;45601;-58
2021/06/18 02:26:00;;;;;;;;;3.50;3.50;;;;;24.05;50.96;100570.31;4943412;28;45426;-58
2021/06/18 02:28:26;;;;;;;;;3.75;3.75;;;;;24.04;51.05;100568.63;4943614;28;45382;-58
2021/06/18 02:30:52;;;;;;;;;2.00;2.00;;;;;24.04;50.98;100577.53;4943714;28;45508;-58
2021/06/18 02:33:17;;;;;;;;;3.00;3.00;;;;;23.99;50.85;100559.09;4942280;28;47273;-58
2021/06/18 02:35:48;;;;;;;;;3.00;3.00;;;;;24.02;50.90;100566.91;4943519;28;45416;-58
2021/06/18 02:38:14;;;;;;;;;2.75;2.75;;;;;23.98;51.32;100568.09;4943436;28;45294;-58
2021/06/18 02:40:40;;;;;;;;;4.00;3.00;;;;;23.97;51.25;100561.00;4943561;28;45389;-58
2021/06/18 02:43:06;;;;;;;;;3.25;3.25;;;;;23.96;51.14;100569.19;4958134;28;45546;-58
2021/06/18 02:45:31;;;;;;;;;3.75;3.75;;;;;23.91;50.85;100565.94;4942185;28;45331;-58
2021/06/18 02:48:02;;;;;;;;;5.00;3.75;;;;;23.93;51.14;100559.53;4943502;28;45285;-59
2021/06/18 02:50:49;;;;;;;;;3.25;2.25;;;;;23.90;51.16;100564.22;4943340;28;45361;-58
2021/06/18 02:53:20;;;;;;;;;5.00;5.00;;;;;23.88;51.01;100563.50;4931564;28;46189;-59
2021/06/18 02:56:13;;;;;;;;;5.00;4.00;;;;;23.88;51.21;100564.34;4941995;28;45270;-58
2021/06/18 02:58:52;;;;;;;;;2.75;2.00;;;;;23.85;51.25;100553.84;4943207;28;45487;-59
2021/06/18 03:01:20;;;;;;;;;3.50;3.50;;;;;23.88;51.27;100568.88;4926367;28;45267;-59
2021/06/18 03:03:52;;;;;;;;;3.75;2.25;;;;;23.89;51.16;100559.84;4935888;28;46945;-59
2021/06/18 03:06:20;;;;;;;;;3.25;3.00;;;;;23.89;51.23;100558.03;4930519;28;45321;-59
2021/06/18 03:08:52;;;;;;;;;3.00;3.00;;;;;23.93;51.24;100553.31;4942895;28;45434;-59
2021/06/18 03:11:21;;;;;;;;;3.00;3.00;;;;;23.94;51.28;100552.34;4943018;28;45322;-58
2021/06/18 03:13:51;;;;;;;;;5.50;3.25;;;;;23.94;51.30;100539.78;4942885;28;46199;-59
2021/06/18 03:16:17;;;;;;;;;5.00;3.00;;;;;23.97;51.13;100549.44;4942962;28;45401;-58
2021/06/18 03:18:46;;;;;;;;;3.75;3.50;;;;;23.96;51.30;100551.28;4945717;28;45470;-58
2021/06/18 03:21:13;;;;;;;;;4.00;3.00;;;;;23.99;51.17;100566.28;4941822;28;45807;-58
2021/06/18 03:23:41;;;;;;;;;3.75;3.75;;;;;23.99;51.36;100561.75;4942601;28;46058;-58
2021/06/18 03:26:06;;;;;;;;;4.00;4.00;;;;;24.01;51.14;100559.84;4941798;28;45243;-58
2021/06/18 03:28:33;;;;;;;;;4.00;4.00;;;;;23.98;51.53;100551.16;4942678;28;45293;-59
2021/06/18 03:31:01;;;;;;;;;4.00;4.00;;;;;24.04;51.36;100565.94;4942954;28;45464;-59
2021/06/18 03:33:27;;;;;;;;;3.00;3.00;;;;;24.05;51.16;100575.69;4942624;28;46098;-58
2021/06/18 03:35:54;;;;;;;;;4.00;3.25;;;;;24.07;51.54;100608.66;4941443;28;45282;-58
2021/06/18 03:38:20;;;;;;;;;4.00;4.00;;;;;24.05;51.88;100645.47;4942466;28;45501;-58
2021/06/18 03:40:46;;;;;;;;;3.25;3.25;;;;;23.99;51.54;100662.91;4942689;28;45660;-58
2021/06/18 03:43:12;;;;;;;;;6.00;6.00;;;;;23.94;52.16;100639.06;4942258;28;46066;-58
2021/06/18 03:45:41;;;;;;;;;8.00;7.00;;;;;23.86;52.63;100610.06;4942554;28;45328;-58
2021/06/18 03:48:10;;;;;;;;;4.00;4.00;;;;;23.80;52.53;100612.34;4942531;28;45295;-59
2021/06/18 03:50:36;;;;;;;;;5.00;5.00;;;;;23.73;52.50;100617.28;4942569;28;45438;-60
2021/06/18 03:53:02;;;;;;;;;7.00;6.25;;;;;23.67;52.71;100623.09;4942023;28;45523;-58
2021/06/18 03:55:28;;;;;;;;;7.00;5.25;;;;;23.59;53.24;100609.38;4942462;28;45325;-59
2021/06/18 03:57:55;;;;;;;;;7.50;6.25;;;;;23.53;53.08;100614.22;4942163;28;45546;-58
2021/06/18 04:00:21;;;;;;;;;5.50;5.50;;;;;23.50;52.88;100613.56;4942337;28;45376;-58
2021/06/18 04:02:49;;;;;;;;;7.00;7.00;;;;;23.47;52.91;100606.59;4929241;28;45373;-58
2021/06/18 04:05:20;;;;;;;;;7.50;7.00;;;;;23.45;52.99;100596.97;4941118;28;45573;-59
2021/06/18 04:07:49;;;;;;;;;8.25;6.25;;;;;23.43;52.76;100593.50;4940354;28;45397;-58
2021/06/18 04:10:17;;;;;;;;;8.00;8.00;;;;;23.43;52.74;100586.31;4942131;28;45180;-58
2021/06/18 04:12:44;;;;;;;;;9.00;7.50;;;;;23.44;52.72;100593.41;4941822;28;46189;-58
2021/06/18 04:15:11;;;;;;;;;8.50;7.00;;;;;23.46;52.60;100588.78;4942183;28;45342;-58
2021/06/18 04:17:39;;;;;;;;;7.00;7.00;;;;;23.48;52.60;100596.72;4929521;28;45244;-60
2021/06/18 04:20:05;;;;;;;;;8.00;7.75;;;;;23.49;52.68;100598.44;4940694;28;45508;-58
2021/06/18 04:22:32;;;;;;;;;9.00;7.75;;;;;23.53;52.29;100599.94;4937355;28;46330;-58
2021/06/18 04:24:58;;;;;;;;;6.00;6.00;;;;;23.54;52.46;100597.13;4934952;28;45445;-58
2021/06/18 04:27:24;;;;;;;;;7.25;6.00;;;;;23.56;52.30;100586.31;4941864;28;45307;-58
2021/06/18 04:29:49;;;;;;;;;7.50;7.00;;;;;23.58;52.50;100592.41;4941989;28;45441;-58
2021/06/18 04:32:15;;;;;;;;;8.50;7.00;;;;;23.59;52.51;100580.72;4942051;28;46110;-58
2021/06/18 04:34:40;;;;;;;;;8.75;8.00;;;;;23.63;52.50;100574.16;4941986;28;45362;-60
2021/06/18 04:37:07;;;;;;;;;6.25;6.25;;;;;23.65;52.48;100576.75;4941823;28;45310;-60
2021/06/18 04:39:32;;;;;;;;;7.50;7.50;;;;;23.65;52.29;100561.50;4941960;28;45408;-60
2021/06/18 04:42:00;;;;;;;;;6.50;6.50;;;;;23.70;52.50;100563.88;4956492;28;47008;-61
2021/06/18 04:44:25;;;;;;;;;8.25;8.25;;;;;23.72;52.45;100572.66;4941832;28;45565;-60
2021/06/18 04:46:51;;;;;;;;;6.00;5.25;;;;;23.76;52.69;100559.88;4941880;28;45312;-60
2021/06/18 04:49:16;;;;;;;;;6.00;6.00;;;;;23.77;52.62;100561.59;4941850;28;45159;-60
2021/06/18 04:51:42;;;;;;;;;7.75;7.25;;;;;23.77;52.62;100561.59;4956203;28;48273;-60
2021/06/18 04:54:08;;;;;;;;;7.00;7.00;;;;;23.78;52.69;100556.09;4941710;28;45420;-60
2021/06/18 04:56:34;;;;;;;;;6.25;6.25;;;;;23.82;52.73;100551.38;4940467;28;45418;-60
2021/06/18 04:58:59;;;;;;;;;8.75;7.25;;;;;23.85;52.55;100562.75;4944753;28;45322;-60
2021/06/18 05:01:24;;;;;;;;;7.00;7.00;;;;;23.85;52.38;100553.84;4935476;28;45318;-60
2021/06/18 05:03:50;;;;;;;;;6.00;6.00;;;;;23.89;52.68;100552.66;4934973;28;45286;-60
2021/06/18 05:06:16;;;;;;;;;6.75;6.25;;;;;23.91;52.69;100558.81;4941591;28;45317;-59
2021/06/18 05:08:41;;;;;;;;;7.75;7.25;;;;;23.93;53.03;100564.91;4940925;28;45332;-60
2021/06/18 05:11:06;;;;;;;;;6.75;6.75;;;;;23.97;52.91;100562.84;4941424;28;46385;-60
2021/06/18 05:13:32;;;;;;;;;8.00;7.50;;;;;24.00;52.60;100558.13;4941211;28;45256;-57
2021/06/18 05:15:57;;;;;;;;;8.00;8.00;;;;;24.01;52.67;100548.22;4941599;28;45286;-58
2021/06/18 05:18:22;;;;;;;;;8.00;8.00;;;;;24.04;52.62;100560.56;4941386;28;45231;-59
2021/06/18 05:20:48;;;;;;;;;7.75;5.50;;;;;24.03;52.44;100554.34;4943016;28;46286;-58
2021/06/18 05:23:13;;;;;;;;;6.00;6.00;;;;;24.08;52.60;100556.69;4944710;28;45417;-58
2021/06/18 05:25:38;;;;;;;;;7.00;7.00;;;;;24.04;52.66;100557.88;4943622;28;45266;-58
2021/06/18 05:28:04;;;;;;;;;5.50;5.50;;;;;24.12;52.83;100571.59;4941767;28;45399;-60
2021/06/18 05:30:29;;;;;;;;;9.25;5.50;;;;;24.14;52.33;100569.66;4943800;28;46261;-61
2021/06/18 05:32:55;;;;;;;;;8.50;7.75;;;;;24.17;52.62;100569.44;4959486;28;45246;-58
2021/06/18 05:35:20;;;;;;;;;5.50;5.50;;;;;24.20;52.49;100573.72;4944617;28;45160;-58
2021/06/18 05:37:47;;;;;;;;;9.50;9.25;;;;;24.23;52.69;100573.50;4944228;28;45591;-57
2021/06/18 05:40:12;;;;;;;;;9.25;6.50;;;;;24.27;52.44;100564.22;4944140;28;46895;-58
2021/06/18 05:42:38;;;;;;;;;6.00;6.00;;;;;24.28;52.47;100563.28;4944084;28;45330;-55
2021/06/18 05:45:05;;;;;;;;;8.50;8.50;;;;;24.32;52.36;100567.44;4931873;28;45358;-53
2021/06/18 05:47:31;;;;;;;;;6.00;6.00;;;;;24.36;52.47;100570.75;4944177;28;45427;-53
2021/06/18 05:49:56;;;;;;;;;10.75;8.50;;;;;24.37;52.39;100557.19;4944350;28;46314;-51
2021/06/18 05:52:22;;;;;;;;;12.25;10.25;;;;;24.40;52.31;100551.63;4943781;28;45318;-53
2021/06/18 05:54:47;;;;;;;;;11.50;10.75;;;;;24.41;52.48;100558.66;4944624;28;45294;-58
2021/06/18 05:57:12;;;;;;;;;11.00;10.25;;;;;24.42;52.63;100556.84;4944054;28;45222;-55
2021/06/18 05:59:38;;;;;;;;;11.50;11.00;;;;;24.44;52.40;100557.56;4931541;28;46315;-53
2021/06/18 06:02:03;;;;;;;;;12.75;11.00;;;;;24.45;52.43;100559.28;4932882;28;45231;-53
2021/06/18 06:04:29;;;;;;;;;12.75;10.00;;;;;24.44;52.27;100568.31;4942797;28;45437;-54
2021/06/18 06:06:54;;;;;;;;;11.00;9.75;;;;;24.46;52.27;100583.34;4943843;28;45449;-52
2021/06/18 06:09:19;;;;;;;;;10.75;9.00;;;;;24.47;52.28;100582.38;4943833;28;45960;-51
2021/06/18 06:11:45;;;;;;;;;10.00;9.00;;;;;24.46;52.48;100583.34;4936234;28;45243;-46
2021/06/18 06:14:16;;;;;;;;;10.25;10.00;;;;;24.49;52.02;100574.22;4944124;28;45378;-55
2021/06/18 06:16:42;;;;;;;;;10.50;8.00;;;;;24.48;52.50;100575.19;4943874;28;45401;-55
2021/06/18 06:19:07;;;;;;;;;9.50;9.50;;;;;24.50;52.47;100573.22;4943568;28;46042;-55
2021/06/18 06:21:32;;;;;;;;;7.25;7.25;;;;;24.47;52.15;100573.47;4943682;28;45271;-55
2021/06/18 06:23:57;;;;;;;;;11.75;11.25;;;;;24.50;52.08;100568.72;4943785;28;45273;-59
2021/06/18 06:26:23;;;;;;;;;12.50;11.50;;;;;24.53;52.43;100574.81;4943536;28;45231;-60
2021/06/18 06:28:49;;;;;;;;;12.75;11.00;;;;;24.51;52.51;100569.56;4958289;28;46909;-61
2021/06/18 06:31:15;;;;;;;;;10.00;10.00;;;;;24.54;52.40;100568.50;4943508;28;45533;-60
2021/06/18 06:33:40;;;;;;;;;10.50;10.50;;;;;24.52;52.32;100571.28;4942459;28;45228;-57
2021/06/18 06:36:05;;;;;;;;;9.25;9.25;;;;;24.50;52.39;100560.69;4943620;28;45259;-51
2021/06/18 06:38:31;;;;;;;;;10.00;10.00;;;;;24.56;52.40;100559.34;4943170;28;46047;-49
2021/06/18 06:40:57;;;;;;;;;12.75;11.25;;;;;24.58;52.39;100568.16;4943585;28;45366;-51
2021/06/18 06:43:22;;;;;;;;;10.00;10.00;;;;;24.59;52.04;100575.22;4943451;28;45349;-48
2021/06/18 06:45:49;;;;;;;;;9.75;9.75;;;;;24.60;52.33;100568.03;4942336;28;45484;-52
2021/06/18 06:48:14;;;;;;;;;10.75;10.00;;;;;24.59;52.47;100561.81;4942353;28;48156;-51
2021/06/18 06:50:40;;;;;;;;;12.25;11.25;;;;;24.62;52.41;100576.84;4954832;28;45345;-52
2021/06/18 06:53:09;;;;;;;;;10.25;10.25;;;;;24.60;52.35;100574.28;4941830;28;45339;-49
2021/06/18 06:55:35;;;;;;;;;12.25;11.25;;;;;24.65;52.25;100579.31;4942020;28;45644;-48
2021/06/18 06:58:01;;;;;;;;;11.25;11.25;;;;;24.61;52.23;100567.91;4942978;28;46130;-49
2021/06/18 07:00:26;;;;;;;;;11.00;10.25;;;;;24.69;52.46;100580.81;4943120;28;45407;-50
2021/06/18 07:02:53;;;;;;;;;13.50;11.75;;;;;24.70;52.64;100578.97;4930515;28;45488;-48
2021/06/18 07:05:18;;;;;;;;;11.75;9.75;;;;;24.75;52.31;100582.16;4943212;28;45291;-49
2021/06/18 07:07:44;;;;;;;;;17.00;15.00;;;;;24.79;52.80;100573.75;4942579;28;46078;-49
2021/06/18 07:10:10;;;;;;;;;18.50;17.50;;;;;24.88;52.61;100571.31;4949282;28;45337;-59
2021/06/18 07:12:35;;;;;;;;;27.75;25.75;;;;;24.92;52.52;100586.25;4942910;28;45303;-58
2021/06/18 07:15:00;;;;;;;;;13.50;12.75;;;;;24.93;52.27;100590.63;4943120;28;45322;-58
2021/06/18 07:17:26;;;;;;;;;9.50;9.50;;;;;24.94;52.17;100600.41;4942734;28;45367;-58
2021/06/18 07:19:56;;;;;;;;;10.00;10.00;;;;;24.92;52.08;100595.16;4942992;28;45350;-58
2021/06/18 07:22:22;;;;;;;;;12.50;10.75;;;;;24.97;52.45;100602.84;4942717;28;45337;-58
2021/06/18 07:24:49;;;;;;;;;12.25;11.50;;;;;25.01;52.43;100609.69;4941800;28;45540;-57
2021/06/18 07:27:15;;;;;;;;;12.50;11.00;;;;;25.03;52.56;100598.81;4942293;28;46124;-57
2021/06/18 07:29:42;;;;;;;;;11.25;9.50;;;;;25.07;52.48;100608.34;4942717;28;45456;-58
2021/06/18 07:32:09;;;;;;;;;11.00;11.00;;;;;25.08;52.31;100624.38;4930387;28;45320;-58
2021/06/18 07:34:35;;;;;;;;;11.00;10.00;;;;;25.11;52.07;100610.69;4942539;28;45417;-58
2021/06/18 07:37:00;;;;;;;;;10.75;9.25;;;;;25.02;52.49;100589.91;4953819;28;45436;-57
2021/06/18 07:39:25;;;;;;;;;9.25;8.25;;;;;25.17;52.16;100608.50;4936524;28;45204;-57
2021/06/18 07:41:51;;;;;;;;;10.75;9.25;;;;;25.21;51.71;100604.63;4942063;28;45327;-58
2021/06/18 07:44:16;;;;;;;;;8.00;8.00;;;;;25.23;51.64;100625.03;4942530;28;45208;-57
2021/06/18 07:46:42;;;;;;;;;10.75;10.00;;;;;25.21;51.75;100613.53;4942675;28;45307;-57
2021/06/18 07:49:08;;;;;;;;;11.50;9.00;;;;;25.21;51.82;100616.22;4942334;28;45294;-57
2021/06/18 07:51:33;;;;;;;;;10.50;9.50;;;;;25.22;51.61;100607.19;4942380;28;45321;-57
2021/06/18 07:53:58;;;;;;;;;14.50;10.75;;;;;25.20;51.79;100601.06;4942392;28;45499;-57
2021/06/18 07:56:25;;;;;;;;;10.00;9.75;;;;;25.24;52.24;100615.97;4942331;28;46930;-58
2021/06/18 07:58:51;;;;;;;;;9.25;8.50;;;;;25.28;52.08;100606.69;4956975;28;45333;-57
2021/06/18 08:01:17;;;;;;;;;7.25;6.75;;;;;25.34;51.63;100615.25;4937835;28;45330;-57
2021/06/18 08:03:42;;;;;;;;;8.75;8.75;;;;;25.41;51.41;100603.09;4934691;28;45164;-57
2021/06/18 08:06:08;;;;;;;;;9.75;9.00;;;;;25.44;51.81;100600.97;4942142;28;45309;-57
2021/06/18 08:08:33;;;;;;;;;10.25;9.50;;;;;25.50;51.94;100609.53;4941991;28;45287;-57
2021/06/18 08:10:59;;;;;;;;;7.75;7.75;;;;;25.57;51.40;100605.38;4942250;28;45429;-58
2021/06/18 08:13:25;;;;;;;;;10.50;8.25;;;;;25.63;51.73;100600.41;4942071;28;45232;-58
2021/06/18 08:15:50;;;;;;;;;6.75;6.75;;;;;25.69;51.56;100593.66;4941919;28;45192;-58
2021/06/18 08:18:16;;;;;;;;;11.25;10.25;;;;;25.70;51.16;100602.56;4941885;28;45144;-57
2021/06/18 08:20:43;;;;;;;;;8.25;8.25;;;;;25.76;50.87;100594.88;4942067;28;45231;-57
2021/06/18 08:23:08;;;;;;;;;11.50;8.75;;;;;25.79;51.02;100594.59;4941905;28;45399;-57
2021/06/18 08:25:34;;;;;;;;;10.00;8.00;;;;;25.82;51.34;100588.13;4936858;28;48039;-57
2021/06/18 08:27:59;;;;;;;;;10.50;9.00;;;;;25.84;51.43;100594.25;4934758;28;45804;-57
2021/06/18 08:30:25;;;;;;;;;7.00;7.00;;;;;25.89;51.20;100583.97;4942058;28;46010;-58
2021/06/18 08:32:51;;;;;;;;;9.25;9.25;;;;;25.94;51.00;100584.44;4941943;28;45477;-57
2021/06/18 08:35:17;;;;;;;;;9.25;7.25;;;;;25.94;50.97;100581.75;4941891;28;46632;-58
2021/06/18 08:37:42;;;;;;;;;13.50;8.25;;;;;25.89;50.97;100581.25;4941545;28;45258;-57
2021/06/18 08:40:08;;;;;;;;;10.50;9.50;;;;;25.92;50.22;100591.78;4942115;28;45204;-57
2021/06/18 08:42:35;;;;;;;;;7.50;6.50;;;;;25.88;50.12;100586.78;4941750;28;45167;-57
2021/06/18 08:45:00;;;;;;;;;7.75;7.75;;;;;25.84;50.65;100588.03;4941677;28;45353;-57
2021/06/18 08:47:26;;;;;;;;;7.75;7.75;;;;;25.84;50.37;100586.16;4941444;28;45232;-57
2021/06/18 08:49:51;;;;;;;;;6.25;6.25;;;;;25.82;50.52;100576.50;4942017;28;45291;-57
2021/06/18 08:52:18;;;;;;;;;7.75;7.75;;;;;25.79;49.90;100575.78;4939953;28;45508;-58
2021/06/18 08:54:44;;;;;;;;;8.75;8.00;;;;;25.77;49.97;100593.03;4941674;28;46300;-58
2021/06/18 08:57:19;;;;;;;;;7.75;7.00;;;;;25.76;50.16;100583.22;4941120;28;45306;-58
2021/06/18 08:59:46;;;;;;;;;6.25;5.75;;;;;25.75;49.92;100584.25;4941654;28;45422;-57
2021/06/18 09:02:13;;;;;;;;;7.00;6.25;;;;;25.72;49.61;100596.09;4929154;28;45365;-61
2021/06/18 09:05:12;;;;;;;;;4.50;4.50;;;;;25.73;49.39;100599.63;4941184;28;46572;-59
2021/06/18 09:07:46;;;;;;;;;11.50;8.75;;;;;25.75;48.95;100592.31;4941128;28;45516;-57
2021/06/18 09:10:22;;;;;;;;;7.50;7.50;;;;;25.71;49.56;100585.44;4941525;28;45359;-57
2021/06/18 09:13:22;;;;;;;;;6.75;5.75;;;;;25.70;49.73;100586.41;4943884;28;45345;-57
2021/06/18 09:15:53;;;;;;;;;6.25;6.25;;;;;25.71;49.52;100590.81;4955970;28;47017;-56
2021/06/18 09:18:25;;;;;;;;;6.00;5.00;;;;;25.74;49.14;100604.03;4941306;28;45527;-57
2021/06/18 09:21:11;;;;;;;;;9.00;7.75;;;;;25.75;49.11;100597.69;4929270;28;45315;-57
2021/06/18 09:23:49;;;;;;;;;6.75;6.00;;;;;25.79;49.46;100600.00;4940164;28;45756;-57
2021/06/18 09:26:33;;;;;;;;;10.00;7.00;;;;;25.83;49.73;100605.97;4940123;28;45596;-57
2021/06/18 09:29:16;;;;;;;;;9.00;6.00;;;;;25.87;49.63;100582.38;4929131;28;45411;-57
2021/06/18 09:31:59;;;;;;;;;6.50;6.00;;;;;25.90;49.74;100579.41;4941177;28;45492;-57
2021/06/18 09:35:00;;;;;;;;;7.75;7.75;;;;;25.91;48.76;100587.38;4941112;28;45477;-57
2021/06/18 09:37:36;;;;;;;;;5.75;5.00;;;;;25.94;49.39;100595.19;4931886;28;46283;-57
2021/06/18 09:40:16;;;;;;;;;7.00;6.00;;;;;26.04;49.19;100586.38;4940922;28;45331;-57
2021/06/18 09:42:50;;;;;;;;;7.00;6.25;;;;;26.09;48.31;100593.13;4940931;28;45302;-57
2021/06/18 09:45:18;;;;;;;;;7.00;7.00;;;;;26.16;48.38;100598.00;4941042;28;45338;-57
2021/06/18 09:47:44;;;;;;;;;6.00;5.75;;;;;26.13;48.53;100593.72;4940757;28;45412;-57
2021/06/18 09:50:12;;;;;;;;;7.00;7.00;;;;;26.25;48.86;100591.84;4940962;28;45352;-57
2021/06/18 09:52:39;;;;;;;;;7.00;7.00;;;;;26.32;49.04;100597.59;4937388;28;45441;-57
2021/06/18 09:55:05;;;;;;;;;8.00;6.50;;;;;26.41;48.22;100608.47;4955802;28;45459;-56
2021/06/18 09:57:36;;;;;;;;;7.00;7.00;;;;;26.48;47.98;100599.84;4940374;28;46242;-56
2021/06/18 10:00:09;;;;;;;;;6.00;5.75;;;;;26.53;48.51;100587.72;4940872;28;45223;-57
2021/06/18 10:02:44;;;;;;;;;4.00;4.00;;;;;26.60;48.11;100607.78;4928120;28;45359;-57
2021/06/18 10:05:15;;;;;;;;;4.50;4.25;;;;;26.61;47.79;100604.06;4941621;28;45428;-57
2021/06/18 10:07:43;;;;;;;;;6.50;5.00;;;;;26.67;47.70;100600.00;4943558;28;47021;-57
2021/06/18 10:10:14;;;;;;;;;5.00;5.00;;;;;26.62;48.01;100594.16;4942680;28;45391;-57
2021/06/18 10:12:40;;;;;;;;;5.25;5.25;;;;;26.75;48.03;100615.56;4943892;28;45237;-57
2021/06/18 10:15:09;;;;;;;;;3.75;3.75;;;;;26.77;47.19;100613.59;4949124;28;45274;-57
2021/06/18 10:17:39;;;;;;;;;4.00;3.00;;;;;26.76;47.57;100626.22;4930997;28;46194;-56
2021/06/18 10:20:08;;;;;;;;;3.50;3.00;;;;;26.86;47.34;100618.19;4943755;28;45275;-57
2021/06/18 10:22:38;;;;;;;;;3.25;3.00;;;;;26.95;47.33;100613.03;4942283;28;45476;-57
2021/06/18 10:25:07;;;;;;;;;3.50;3.25;;;;;26.99;46.80;100622.53;4942485;28;45248;-57
2021/06/18 10:27:38;;;;;;;;;6.75;4.75;;;;;27.06;46.97;100619.19;4943127;28;46597;-56
2021/06/18 10:30:24;;;;;;;;;5.75;4.00;;;;;27.18;47.05;100625.38;4943658;28;45200;-56
2021/06/18 10:32:51;;;;;;;;;5.50;5.50;;;;;27.24;47.07;100624.84;4942786;28;45302;-57
2021/06/18 10:35:45;;;;;;;;;4.00;4.00;;;;;27.34;46.43;100622.19;4943694;28;45407;-56
2021/06/18 10:38:25;;;;;;;;;5.75;5.00;;;;;27.38;46.73;100620.06;4943053;28;46475;-57
2021/06/18 10:40:51;;;;;;;;;4.50;4.50;;;;;27.46;46.78;100633.78;4958383;28;45289;-56
2021/06/18 10:43:16;;;;;;;;;3.75;3.00;;;;;27.59;46.75;100640.81;4958254;28;45333;-57
2021/06/18 10:46:00;;;;;;;;;4.75;4.75;;;;;27.74;46.58;100645.69;4949373;28;45465;-57
2021/06/18 10:48:44;;;;;;;;;5.00;5.00;;;;;28.01;47.16;100638.84;4932432;28;46069;-57
2021/06/18 10:51:43;;;;;;;;;5.75;4.75;;;;;28.29;47.03;100639.06;4943088;28;45314;-57
2021/06/18 10:54:25;;;;;;;;;4.25;4.25;;;;;28.61;47.27;100639.81;4935856;28;45178;-56
2021/06/18 10:56:54;;;;;;;;;4.75;4.75;;;;;28.90;46.97;100642.53;4943056;28;45460;-56
2021/06/18 10:59:28;;;;;;;;;6.00;4.00;;;;;29.04;45.73;100662.84;4943067;28;45448;-57
2021/06/18 11:01:54;;;;;;;;;5.75;4.75;;;;;29.10;45.41;100647.91;4933223;28;45314;-58
2021/06/18 11:04:56;;;;;;;;;5.75;5.25;;;;;29.17;46.80;100647.19;4940608;28;45263;-58
2021/06/18 11:07:27;;;;;;;;;5.00;5.00;;;;;29.54;47.00;100640.13;4921468;28;45489;-58
2021/06/18 11:09:57;;;;;;;;;3.50;3.50;;;;;30.08;47.96;100645.75;4932369;28;46147;-58
2021/06/18 11:12:23;;;;;;;;;5.00;4.00;;;;;30.68;48.93;100665.19;4942879;28;45376;-58
2021/06/18 11:14:51;;;;;;;;;3.75;3.75;;;;;31.24;48.91;100641.41;4943325;28;45174;-58
2021/06/18 11:17:49;;;;;;;;;3.00;3.00;;;;;31.79;47.38;100659.25;4941891;28;45463;-59
2021/06/18 11:20:14;;;;;;;;;4.75;4.75;;;;;32.01;44.23;100656.94;4942802;28;46141;-59
2021/06/18 11:22:53;;;;;;;;;4.75;4.00;;;;;31.90;44.05;100666.22;4942798;28;45351;-59
2021/06/18 11:25:40;;;;;;;;;4.00;4.00;;;;;31.69;43.50;100653.91;4941865;28;45248;-59
2021/06/18 11:28:21;;;;;;;;;5.25;3.25;;;;;31.59;43.00;100655.88;4942757;28;45285;-59
2021/06/18 11:31:00;;;;;;;;;5.00;5.00;;;;;31.46;42.87;100656.34;4931700;28;45337;-57